createdAt,value
2018-11-07T00:00:19.470Z,100.00
2018-11-07T00:02:48.820Z,100.00
2018-11-07T00:05:19.150Z,100.00
2018-11-07T00:07:48.707Z,100.00
2018-11-07T00:10:17.893Z,100.00
2018-11-07T00:12:47.154Z,100.00
2018-11-07T00:15:17.198Z,100.00
2018-11-07T00:17:46.902Z,100.00
2018-11-07T00:20:17.339Z,100.00
2018-11-07T00:22:46.434Z,100.00
2018-11-07T00:25:15.558Z,100.00
2018-11-07T00:27:44.806Z,100.00
2018-11-07T00:30:13.980Z,100.00
2018-11-07T00:32:43.074Z,100.00
2018-11-07T00:35:12.664Z,100.00
2018-11-07T00:37:42.910Z,100.00
2018-11-07T00:40:12.676Z,100.00
2018-11-07T00:42:41.808Z,100.00
2018-11-07T00:45:12.549Z,100.00
2018-11-07T00:47:41.971Z,100.00
2018-11-07T00:50:14.101Z,100.00
2018-11-07T00:52:43.890Z,100.00
2018-11-07T00:55:13.592Z,100.00
2018-11-07T00:57:42.914Z,100.00
2018-11-07T01:00:14.903Z,100.00
2018-11-07T01:02:44.227Z,100.00
2018-11-07T01:05:13.855Z,100.00
2018-11-07T01:07:43.996Z,100.00
2018-11-07T01:10:13.284Z,100.00
2018-11-07T01:12:42.942Z,100.00
2018-11-07T01:15:12.765Z,100.00
2018-11-07T01:17:41.963Z,100.00
2018-11-07T01:20:13.516Z,100.00
2018-11-07T01:22:42.746Z,100.00
2018-11-07T01:25:11.882Z,100.00
2018-11-07T01:27:41.001Z,100.00
2018-11-07T01:30:12.617Z,100.00
2018-11-07T01:32:41.756Z,100.00
2018-11-07T01:35:10.911Z,100.00
2018-11-07T01:37:40.124Z,100.00
2018-11-07T01:40:11.932Z,100.00
2018-11-07T01:42:41.126Z,100.00
2018-11-07T01:45:11.132Z,100.00
2018-11-07T01:47:40.243Z,100.00
2018-11-07T01:50:12.348Z,100.00
2018-11-07T01:52:41.528Z,100.00
2018-11-07T01:55:12.382Z,100.00
2018-11-07T01:57:41.827Z,100.00
2018-11-07T02:00:12.480Z,100.00
2018-11-07T02:02:43.187Z,100.00
2018-11-07T02:05:12.866Z,100.00
2018-11-07T02:07:42.442Z,100.00
2018-11-07T02:10:11.834Z,100.00
2018-11-07T02:12:41.751Z,100.00
2018-11-07T02:15:11.739Z,100.00
2018-11-07T02:17:41.080Z,100.00
2018-11-07T02:20:11.296Z,100.00
2018-11-07T02:22:40.469Z,100.00
2018-11-07T02:25:09.682Z,100.00
2018-11-07T02:27:39.418Z,100.00
2018-11-07T02:30:12.571Z,100.00
2018-11-07T02:32:41.707Z,100.00
2018-11-07T02:35:10.839Z,100.00
2018-11-07T02:37:39.987Z,100.00
2018-11-07T02:40:09.807Z,100.00
2018-11-07T02:42:39.072Z,100.00
2018-11-07T02:45:08.275Z,100.00
2018-11-07T02:47:37.460Z,100.00
2018-11-07T02:50:08.224Z,100.00
2018-11-07T02:52:37.390Z,100.00
2018-11-07T02:55:06.808Z,100.00
2018-11-07T02:57:36.016Z,100.00
2018-11-07T03:00:08.470Z,100.00
2018-11-07T03:02:37.666Z,100.00
2018-11-07T03:05:06.826Z,100.00
2018-11-07T03:07:36.407Z,100.00
2018-11-07T03:10:07.386Z,100.00
2018-11-07T03:12:36.626Z,100.00
2018-11-07T03:15:07.179Z,100.00
2018-11-07T03:17:36.366Z,100.00
2018-11-07T03:20:07.919Z,100.00
2018-11-07T03:22:37.042Z,100.00
2018-11-07T03:25:06.609Z,100.00
2018-11-07T03:27:35.801Z,100.00
2018-11-07T03:30:06.259Z,100.00
2018-11-07T03:32:35.443Z,100.00
2018-11-07T03:35:09.746Z,100.00
2018-11-07T03:37:39.265Z,100.00
2018-11-07T03:40:08.722Z,100.00
2018-11-07T03:42:39.093Z,100.00
2018-11-07T03:45:08.715Z,100.00
2018-11-07T03:47:37.837Z,100.00
2018-11-07T03:50:06.969Z,100.00
2018-11-07T03:52:36.113Z,100.00
2018-11-07T03:55:05.830Z,100.00
2018-11-07T03:57:35.410Z,100.00
2018-11-07T04:00:05.518Z,100.00
2018-11-07T04:02:34.633Z,100.00
2018-11-07T04:05:04.690Z,100.00
2018-11-07T04:07:33.978Z,100.00
2018-11-07T04:10:03.383Z,100.00
2018-11-07T04:12:32.194Z,100.00
2018-11-07T04:15:01.349Z,100.00
2018-11-07T04:17:30.494Z,100.00
2018-11-07T04:19:59.609Z,100.00
2018-11-07T04:22:28.800Z,100.00
2018-11-07T04:24:58.591Z,100.00
2018-11-07T04:27:27.686Z,100.00
2018-11-07T04:29:56.807Z,100.00
2018-11-07T04:32:25.918Z,100.00
2018-11-07T04:34:55.046Z,100.00
2018-11-07T04:37:24.150Z,100.00
2018-11-07T04:39:53.714Z,100.00
2018-11-07T04:42:22.815Z,100.00
2018-11-07T04:44:52.184Z,100.00
2018-11-07T04:47:21.299Z,100.00
2018-11-07T04:49:50.434Z,100.00
2018-11-07T04:52:19.520Z,100.00
2018-11-07T04:54:48.667Z,100.00
2018-11-07T04:57:17.933Z,100.00
2018-11-07T04:59:47.071Z,100.00
2018-11-07T05:02:16.609Z,100.00
2018-11-07T05:04:45.769Z,100.00
2018-11-07T05:07:14.958Z,100.00
2018-11-07T05:09:44.850Z,100.00
2018-11-07T05:12:13.974Z,100.00
2018-11-07T05:14:43.107Z,100.00
2018-11-07T05:17:12.265Z,100.00
2018-11-07T05:19:41.514Z,100.00
2018-11-07T05:22:10.933Z,100.00
2018-11-07T05:24:40.150Z,100.00
2018-11-07T05:27:09.282Z,100.00
2018-11-07T05:29:38.406Z,100.00
2018-11-07T05:32:07.639Z,100.00
2018-11-07T05:34:38.991Z,100.00
2018-11-07T05:37:08.147Z,100.00
2018-11-07T05:39:37.259Z,100.00
2018-11-07T05:42:06.666Z,100.00
2018-11-07T05:44:35.813Z,100.00
2018-11-07T05:47:05.318Z,100.00
2018-11-07T05:49:34.502Z,100.00
2018-11-07T05:52:03.839Z,100.00
2018-11-07T05:54:32.933Z,100.00
2018-11-07T05:57:02.471Z,100.00
2018-11-07T05:59:31.215Z,100.00
2018-11-07T06:02:00.382Z,100.00
2018-11-07T06:04:29.510Z,100.00
2018-11-07T06:06:58.605Z,100.00
2018-11-07T06:09:27.745Z,100.00
2018-11-07T06:11:56.855Z,100.00
2018-11-07T06:14:25.961Z,100.00
2018-11-07T06:16:55.119Z,100.00
2018-11-07T06:19:24.231Z,100.00
2018-11-07T06:21:53.417Z,100.00
2018-11-07T06:24:22.575Z,100.00
2018-11-07T06:26:53.390Z,100.00
2018-11-07T06:29:22.881Z,100.00
2018-11-07T06:31:52.279Z,100.00
2018-11-07T06:34:21.405Z,100.00
2018-11-07T06:36:50.574Z,100.00
2018-11-07T06:39:19.669Z,100.00
2018-11-07T06:41:48.775Z,100.00
2018-11-07T06:44:17.971Z,100.00
2018-11-07T06:46:47.474Z,100.00
2018-11-07T06:49:16.579Z,100.00
2018-11-07T06:51:45.738Z,100.00
2018-11-07T06:54:15.498Z,100.00
2018-11-07T06:56:44.637Z,100.00
2018-11-07T06:59:13.798Z,100.00
2018-11-07T07:01:42.593Z,100.00
2018-11-07T07:04:12.046Z,100.00
2018-11-07T07:06:41.205Z,100.00
2018-11-07T07:09:11.024Z,100.00
2018-11-07T07:11:40.538Z,100.00
2018-11-07T07:14:10.098Z,100.00
2018-11-07T07:16:39.254Z,100.00
2018-11-07T07:19:08.377Z,100.00
2018-11-07T07:21:37.506Z,100.00
2018-11-07T07:24:06.674Z,100.00
2018-11-07T07:26:36.586Z,100.00
2018-11-07T07:29:06.186Z,100.00
2018-11-07T07:31:35.313Z,100.00
2018-11-07T07:34:04.446Z,100.00
2018-11-07T07:36:33.578Z,100.00
2018-11-07T07:39:02.706Z,100.00
2018-11-07T07:41:33.698Z,100.00
2018-11-07T07:44:03.079Z,100.00
2018-11-07T07:46:32.568Z,100.00
2018-11-07T07:49:02.067Z,100.00
2018-11-07T07:51:31.291Z,100.00
2018-11-07T07:54:00.408Z,100.00
2018-11-07T07:56:29.583Z,100.00
2018-11-07T07:58:58.753Z,100.00
2018-11-07T08:01:27.963Z,100.00
2018-11-07T08:03:57.134Z,100.00
2018-11-07T08:06:26.978Z,100.00
2018-11-07T08:08:56.094Z,100.00
2018-11-07T08:11:25.256Z,100.00
2018-11-07T08:13:54.443Z,100.00
2018-11-07T08:16:23.868Z,100.00
2018-11-07T08:18:53.029Z,100.00
2018-11-07T08:21:22.244Z,100.00
2018-11-07T08:23:51.460Z,100.00
2018-11-07T08:26:20.589Z,100.00
2018-11-07T08:28:49.702Z,100.00
2018-11-07T08:31:18.840Z,100.00
2018-11-07T08:33:47.974Z,100.00
2018-11-07T08:36:17.084Z,100.00
2018-11-07T08:38:46.223Z,100.00
2018-11-07T08:41:15.941Z,100.00
2018-11-07T08:43:45.092Z,100.00
2018-11-07T08:46:14.210Z,100.00
2018-11-07T08:48:43.352Z,100.00
2018-11-07T08:51:12.890Z,100.00
2018-11-07T08:53:42.191Z,100.00
2018-11-07T08:56:11.326Z,100.00
2018-11-07T08:58:40.554Z,100.00
2018-11-07T09:01:09.752Z,100.00
2018-11-07T09:03:38.538Z,100.00
2018-11-07T09:06:07.686Z,100.00
2018-11-07T09:08:36.830Z,100.00
2018-11-07T09:11:05.960Z,100.00
2018-11-07T09:13:35.104Z,100.00
2018-11-07T09:16:04.222Z,100.00
2018-11-07T09:18:33.443Z,100.00
2018-11-07T09:21:02.562Z,100.00
2018-11-07T09:23:31.690Z,100.00
2018-11-07T09:26:00.863Z,100.00
2018-11-07T09:28:30.349Z,100.00
2018-11-07T09:30:59.477Z,100.00
2018-11-07T09:33:28.631Z,100.00
2018-11-07T09:35:57.747Z,100.00
2018-11-07T09:38:26.885Z,100.00
2018-11-07T09:40:56.038Z,100.00
2018-11-07T09:43:25.145Z,100.00
2018-11-07T09:45:54.261Z,100.00
2018-11-07T09:48:23.805Z,100.00
2018-11-07T09:50:52.845Z,100.00
2018-11-07T09:53:21.986Z,100.00
2018-11-07T09:55:51.127Z,100.00
2018-11-07T09:58:20.363Z,100.00
2018-11-07T10:00:49.206Z,100.00
2018-11-07T10:03:18.595Z,100.00
2018-11-07T10:05:47.592Z,100.00
2018-11-07T10:08:16.827Z,100.00
2018-11-07T10:10:45.953Z,100.00
2018-11-07T10:13:15.078Z,100.00
2018-11-07T10:15:44.618Z,100.00
2018-11-07T10:18:13.410Z,100.00
2018-11-07T10:20:42.648Z,100.00
2018-11-07T10:23:11.955Z,100.00
2018-11-07T10:25:41.356Z,100.00
2018-11-07T10:28:10.379Z,100.00
2018-11-07T10:30:39.482Z,100.00
2018-11-07T10:33:08.859Z,100.00
2018-11-07T10:35:37.974Z,100.00
2018-11-07T10:38:07.398Z,100.00
2018-11-07T10:40:36.454Z,100.00
2018-11-07T10:43:05.601Z,100.00
2018-11-07T10:45:34.722Z,100.00
2018-11-07T10:48:03.878Z,100.00
2018-11-07T10:50:33.033Z,100.00
2018-11-07T10:53:03.566Z,100.00
2018-11-07T10:55:32.682Z,100.00
2018-11-07T10:58:05.487Z,99.66
2018-11-07T11:00:39.908Z,99.28
2018-11-07T11:03:14.497Z,94.87
2018-11-07T11:05:43.158Z,90.46
2018-11-07T11:08:12.250Z,92.62
2018-11-07T11:10:41.411Z,89.44
2018-11-07T11:13:10.531Z,87.19
2018-11-07T11:15:39.633Z,84.04
2018-11-07T11:18:08.773Z,84.51
2018-11-07T11:20:38.757Z,85.56
2018-11-07T11:23:08.126Z,82.93
2018-11-07T11:25:37.374Z,81.38
2018-11-07T11:28:06.470Z,76.91
2018-11-07T11:30:34.494Z,76.96
2018-11-07T11:33:03.608Z,76.20
2018-11-07T11:35:32.715Z,78.65
2018-11-07T11:38:01.745Z,75.75
2018-11-07T11:40:31.059Z,73.56
2018-11-07T11:43:00.325Z,72.34
2018-11-07T11:45:30.261Z,73.35
2018-11-07T11:47:59.610Z,73.04
2018-11-07T11:50:28.922Z,73.34
2018-11-07T11:52:58.219Z,73.57
2018-11-07T11:55:27.341Z,72.06
2018-11-07T11:58:03.187Z,72.42
2018-11-07T12:00:32.360Z,75.96
2018-11-07T12:03:01.465Z,74.85
2018-11-07T12:05:30.565Z,71.44
2018-11-07T12:07:59.698Z,70.66
2018-11-07T12:10:29.256Z,69.02
2018-11-07T12:12:59.010Z,69.39
2018-11-07T12:15:28.767Z,70.67
2018-11-07T12:17:58.226Z,68.30
2018-11-07T12:20:27.379Z,66.93
2018-11-07T12:22:56.549Z,68.18
2018-11-07T12:25:25.667Z,68.41
2018-11-07T12:27:55.550Z,67.99
2018-11-07T12:30:25.587Z,66.99
2018-11-07T12:32:55.282Z,68.53
2018-11-07T12:35:24.442Z,67.86
2018-11-07T12:37:53.609Z,66.96
2018-11-07T12:40:22.699Z,67.83
2018-11-07T12:42:51.881Z,67.05
2018-11-07T12:45:20.951Z,66.28
2018-11-07T12:47:50.063Z,65.66
2018-11-07T12:50:20.622Z,65.65
2018-11-07T12:52:49.667Z,65.85
2018-11-07T12:55:19.561Z,66.31
2018-11-07T12:57:48.791Z,67.46
2018-11-07T13:00:21.038Z,64.97
2018-11-07T13:02:50.368Z,65.96
2018-11-07T13:05:22.126Z,65.14
2018-11-07T13:07:51.794Z,65.35
2018-11-07T13:10:21.963Z,65.08
2018-11-07T13:12:51.706Z,66.44
2018-11-07T13:15:21.671Z,65.75
2018-11-07T13:17:51.576Z,66.20
2018-11-07T13:20:22.950Z,64.58
2018-11-07T13:22:53.198Z,65.61
2018-11-07T13:25:23.325Z,64.56
2018-11-07T13:27:52.468Z,65.61
2018-11-07T13:30:22.387Z,65.37
2018-11-07T13:32:51.729Z,65.32
2018-11-07T13:35:21.018Z,65.33
2018-11-07T13:37:51.785Z,63.98
2018-11-07T13:40:22.140Z,64.64
2018-11-07T13:42:51.321Z,64.62
2018-11-07T13:45:21.587Z,64.48
2018-11-07T13:47:51.934Z,64.67
2018-11-07T13:50:21.241Z,63.72
2018-11-07T13:52:50.347Z,64.41
2018-11-07T13:55:19.478Z,66.18
2018-11-07T13:57:48.609Z,66.01
2018-11-07T14:00:19.896Z,67.69
2018-11-07T14:02:49.753Z,67.01
2018-11-07T14:05:19.059Z,67.64
2018-11-07T14:07:48.017Z,66.95
2018-11-07T14:10:24.954Z,66.86
2018-11-07T14:12:54.645Z,67.13
2018-11-07T14:15:24.449Z,68.56
2018-11-07T14:17:54.063Z,68.54
2018-11-07T14:20:22.861Z,68.78
2018-11-07T14:22:52.005Z,69.41
2018-11-07T14:25:21.124Z,68.74
2018-11-07T14:27:50.371Z,68.13
2018-11-07T14:30:20.681Z,69.53
2018-11-07T14:32:58.502Z,70.11
2018-11-07T14:35:27.666Z,69.93
2018-11-07T14:37:57.738Z,70.56
2018-11-07T14:40:26.882Z,70.06
2018-11-07T14:42:56.041Z,71.09
2018-11-07T14:45:25.138Z,70.98
2018-11-07T14:47:54.979Z,71.43
2018-11-07T14:50:24.097Z,73.14
2018-11-07T14:52:53.204Z,74.08
2018-11-07T14:55:22.301Z,73.16
2018-11-07T14:57:51.447Z,73.80
2018-11-07T15:00:20.542Z,74.39
2018-11-07T15:02:50.445Z,75.08
2018-11-07T15:05:20.332Z,75.22
2018-11-07T15:07:49.432Z,75.76
2018-11-07T15:10:18.897Z,76.97
2018-11-07T15:12:48.419Z,77.48
2018-11-07T15:15:18.929Z,78.06
2018-11-07T15:17:48.174Z,79.07
2018-11-07T15:20:17.730Z,79.56
2018-11-07T15:22:46.918Z,80.62
2018-11-07T15:25:17.021Z,80.98
2018-11-07T15:27:46.874Z,82.07
2018-11-07T15:30:16.820Z,82.57
2018-11-07T15:32:46.527Z,84.21
2018-11-07T15:35:15.890Z,85.24
2018-11-07T15:37:45.050Z,86.08
2018-11-07T15:40:16.495Z,86.88
2018-11-07T15:42:46.095Z,87.55
2018-11-07T15:45:16.674Z,88.75
2018-11-07T15:47:46.029Z,89.24
2018-11-07T15:50:20.860Z,90.32
2018-11-07T15:52:50.450Z,90.22
2018-11-07T15:55:19.496Z,90.73
2018-11-07T15:57:48.642Z,91.51
2018-11-07T16:00:19.890Z,92.15
2018-11-07T16:02:48.991Z,92.37
2018-11-07T16:05:18.483Z,92.87
2018-11-07T16:07:48.727Z,93.53
2018-11-07T16:10:17.905Z,94.18
2018-11-07T16:12:46.966Z,95.21
2018-11-07T16:15:17.756Z,95.44
2018-11-07T16:17:46.901Z,96.01
2018-11-07T16:20:17.574Z,96.36
2018-11-07T16:22:47.661Z,96.44
2018-11-07T16:25:16.808Z,95.72
2018-11-07T16:27:46.310Z,95.26
2018-11-07T16:30:18.853Z,94.21
2018-11-07T16:32:48.122Z,94.15
2018-11-07T16:35:17.274Z,93.63
2018-11-07T16:37:46.430Z,94.04
2018-11-07T16:40:16.869Z,94.64
2018-11-07T16:42:47.514Z,95.05
2018-11-07T16:45:17.654Z,96.74
2018-11-07T16:47:46.964Z,97.73
2018-11-07T16:50:16.654Z,98.63
2018-11-07T16:52:46.074Z,98.31
2018-11-07T16:55:15.532Z,99.06
2018-11-07T16:57:44.636Z,100.00
2018-11-07T17:00:16.815Z,100.00
2018-11-07T17:02:46.498Z,100.00
2018-11-07T17:05:16.036Z,100.00
2018-11-07T17:07:45.487Z,100.00
2018-11-07T17:10:15.051Z,100.00
2018-11-07T17:12:44.209Z,100.00
2018-11-07T17:15:13.505Z,100.00
2018-11-07T17:17:43.341Z,100.00
2018-11-07T17:20:13.861Z,100.00
2018-11-07T17:22:42.957Z,100.00
2018-11-07T17:25:16.151Z,100.00
2018-11-07T17:27:45.294Z,100.00
2018-11-07T17:30:16.054Z,100.00
2018-11-07T17:32:44.755Z,100.00
2018-11-07T17:35:15.056Z,100.00
2018-11-07T17:37:44.522Z,100.00
2018-11-07T17:40:17.287Z,100.00
2018-11-07T17:42:47.192Z,100.00
2018-11-07T17:45:18.838Z,100.00
2018-11-07T17:47:49.513Z,100.00
2018-11-07T17:50:20.567Z,100.00
2018-11-07T17:52:49.743Z,100.00
2018-11-07T17:55:19.953Z,100.00
2018-11-07T17:57:49.023Z,100.00
2018-11-07T18:00:20.023Z,100.00
2018-11-07T18:02:49.258Z,100.00
2018-11-07T18:05:19.873Z,100.00
2018-11-07T18:07:49.260Z,100.00
2018-11-07T18:10:19.078Z,100.00
2018-11-07T18:12:48.229Z,100.00
2018-11-07T18:15:17.522Z,100.00
2018-11-07T18:17:46.991Z,100.00
2018-11-07T18:20:17.377Z,100.00
2018-11-07T18:22:46.883Z,100.00
2018-11-07T18:25:17.318Z,100.00
2018-11-07T18:27:46.197Z,100.00
2018-11-07T18:30:16.706Z,100.00
2018-11-07T18:32:46.621Z,100.00
2018-11-07T18:35:17.694Z,100.00
2018-11-07T18:37:47.658Z,100.00
2018-11-07T18:40:18.221Z,100.00
2018-11-07T18:42:47.855Z,100.00
2018-11-07T18:45:17.225Z,100.00
2018-11-07T18:47:47.270Z,100.00
2018-11-07T18:50:17.951Z,100.00
2018-11-07T18:52:46.967Z,100.00
2018-11-07T18:55:16.880Z,100.00
2018-11-07T18:57:46.393Z,100.00
2018-11-07T19:00:17.402Z,100.00
2018-11-07T19:02:47.753Z,100.00
2018-11-07T19:05:16.965Z,100.00
2018-11-07T19:07:46.077Z,100.00
2018-11-07T19:10:17.293Z,100.00
2018-11-07T19:12:47.395Z,100.00
2018-11-07T19:15:16.925Z,100.00
2018-11-07T19:17:47.038Z,100.00
2018-11-07T19:20:17.223Z,100.00
2018-11-07T19:22:46.484Z,100.00
2018-11-07T19:25:17.522Z,100.00
2018-11-07T19:27:47.218Z,100.00
2018-11-07T19:30:19.186Z,100.00
2018-11-07T19:32:49.593Z,100.00
2018-11-07T19:35:19.842Z,100.00
2018-11-07T19:37:49.721Z,100.00
2018-11-07T19:40:20.667Z,100.00
2018-11-07T19:42:53.102Z,100.00
2018-11-07T19:45:22.812Z,100.00
2018-11-07T19:47:52.794Z,100.00
2018-11-07T19:50:22.661Z,100.00
2018-11-07T19:52:52.356Z,100.00
2018-11-07T19:55:23.129Z,100.00
2018-11-07T19:58:01.402Z,100.00
2018-11-07T20:00:30.645Z,100.00
2018-11-07T20:02:59.758Z,100.00
2018-11-07T20:05:29.026Z,100.00
2018-11-07T20:07:58.170Z,100.00
2018-11-07T20:10:27.412Z,100.00
2018-11-07T20:12:57.784Z,100.00
2018-11-07T20:15:26.914Z,100.00
2018-11-07T20:17:56.266Z,100.00
2018-11-07T20:20:25.955Z,100.00
2018-11-07T20:22:55.411Z,100.00
2018-11-07T20:25:24.603Z,100.00
2018-11-07T20:27:54.103Z,100.00
2018-11-07T20:30:24.186Z,100.00
2018-11-07T20:32:53.849Z,100.00
2018-11-07T20:35:23.797Z,100.00
2018-11-07T20:37:53.896Z,100.00
2018-11-07T20:40:23.671Z,100.00
2018-11-07T20:42:53.134Z,100.00
2018-11-07T20:45:22.534Z,100.00
2018-11-07T20:47:51.758Z,100.00
2018-11-07T20:50:22.141Z,100.00
2018-11-07T20:52:51.501Z,100.00
2018-11-07T20:55:20.665Z,100.00
2018-11-07T20:57:54.334Z,100.00
2018-11-07T21:00:24.346Z,100.00
2018-11-07T21:02:53.698Z,100.00
2018-11-07T21:05:23.458Z,100.00
2018-11-07T21:07:52.862Z,100.00
2018-11-07T21:10:23.049Z,100.00
2018-11-07T21:12:53.114Z,100.00
2018-11-07T21:15:22.596Z,100.00
2018-11-07T21:17:52.053Z,100.00
2018-11-07T21:20:21.410Z,100.00
2018-11-07T21:22:50.754Z,100.00
2018-11-07T21:25:19.757Z,100.00
2018-11-07T21:27:49.901Z,100.00
2018-11-07T21:30:25.217Z,100.00
2018-11-07T21:32:54.558Z,100.00
2018-11-07T21:35:23.726Z,100.00
2018-11-07T21:37:52.877Z,100.00
2018-11-07T21:40:22.051Z,100.00
2018-11-07T21:42:51.441Z,100.00
2018-11-07T21:45:20.517Z,100.00
2018-11-07T21:47:49.626Z,100.00
2018-11-07T21:50:18.817Z,100.00
2018-11-07T21:52:48.635Z,100.00
2018-11-07T21:55:17.765Z,100.00
2018-11-07T21:57:46.893Z,100.00
2018-11-07T22:00:18.223Z,100.00
2018-11-07T22:02:47.763Z,100.00
2018-11-07T22:05:17.602Z,100.00
2018-11-07T22:07:47.390Z,100.00
2018-11-07T22:10:18.030Z,100.00
2018-11-07T22:12:47.941Z,100.00
2018-11-07T22:15:17.166Z,100.00
2018-11-07T22:17:46.437Z,100.00
2018-11-07T22:20:20.802Z,100.00
2018-11-07T22:22:49.953Z,100.00
2018-11-07T22:25:19.109Z,100.00
2018-11-07T22:27:48.279Z,100.00
2018-11-07T22:30:18.569Z,100.00
2018-11-07T22:32:47.686Z,100.00
2018-11-07T22:35:17.870Z,100.00
2018-11-07T22:37:47.469Z,100.00
2018-11-07T22:40:18.025Z,100.00
2018-11-07T22:42:47.741Z,100.00
2018-11-07T22:45:16.910Z,100.00
2018-11-07T22:47:46.078Z,100.00
2018-11-07T22:50:16.494Z,100.00
2018-11-07T22:52:45.985Z,100.00
2018-11-07T22:55:15.206Z,100.00
2018-11-07T22:57:44.831Z,100.00
2018-11-07T23:00:22.462Z,100.00
2018-11-07T23:02:52.575Z,100.00
2018-11-07T23:05:21.933Z,100.00
2018-11-07T23:07:51.588Z,100.00
2018-11-07T23:10:21.667Z,100.00
2018-11-07T23:12:51.831Z,100.00
2018-11-07T23:15:26.984Z,100.00
2018-11-07T23:17:56.167Z,100.00
2018-11-07T23:20:25.747Z,100.00
2018-11-07T23:22:55.024Z,100.00
2018-11-07T23:25:24.610Z,100.00
2018-11-07T23:27:53.753Z,100.00
2018-11-07T23:30:22.958Z,100.00
2018-11-07T23:32:52.106Z,100.00
2018-11-07T23:35:21.878Z,100.00
2018-11-07T23:37:51.715Z,100.00
2018-11-07T23:40:21.646Z,100.00
2018-11-07T23:42:51.565Z,100.00
2018-11-07T23:45:20.421Z,100.00
2018-11-07T23:47:49.557Z,100.00
2018-11-07T23:50:18.684Z,100.00
2018-11-07T23:52:50.115Z,100.00
2018-11-07T23:55:20.454Z,100.00
2018-11-07T23:57:50.631Z,100.00
